Time;durP1;ratioP1;P1;durP2;ratioP2;P2;SDS_P1;SDS_P2;PMS_P1;PMS_P2;Temp;Humidity;BMP_temperature;BMP_pressure;BME280_temperature;BME280_humidity;BME280_pressure;Samples;Min_cycle;Max_cycle;Signal;HPM_P1;HPM_P2
2022/06/14 00:02:54;;;;;;;0.37;0.37;;;12.80;87.80;12.80;101125.00;;;;4996310;27;82873;-66
2022/06/14 00:05:20;;;;;;;0.40;0.40;;;12.70;88.30;12.70;101122.00;;;;5014290;27;111748;-66
2022/06/14 00:07:46;;;;;;;2.00;0.17;;;12.70;88.90;12.60;101121.00;;;;5016212;27;108631;-67
2022/06/14 00:10:11;;;;;;;0.43;0.40;;;12.60;89.50;12.60;101128.00;;;;5016296;27;108987;-66
2022/06/14 00:12:37;;;;;;;0.70;0.40;;;12.60;90.00;12.50;101129.00;;;;5015696;27;111528;-66
2022/06/14 00:15:04;;;;;;;0.30;0.30;;;12.50;90.20;12.40;101124.00;;;;5000109;27;112479;-66
2022/06/14 00:17:30;;;;;;;0.30;0.30;;;12.40;90.40;12.40;101123.00;;;;4997772;27;82603;-66
2022/06/14 00:19:55;;;;;;;0.43;0.43;;;12.40;90.60;12.30;101129.00;;;;5007957;27;107811;-66
2022/06/14 00:22:21;;;;;;;0.33;0.20;;;12.30;90.70;12.30;101126.00;;;;5017048;27;111964;-65
2022/06/14 00:24:47;;;;;;;0.20;0.20;;;12.30;91.00;12.20;101133.00;;;;5005045;27;113141;-65
2022/06/14 00:27:12;;;;;;;0.40;0.40;;;12.20;91.60;12.20;101134.00;;;;5009809;27;110336;-66
2022/06/14 00:29:38;;;;;;;0.20;0.20;;;12.20;91.80;12.10;101128.00;;;;5007189;27;110238;-65
2022/06/14 00:32:04;;;;;;;1.57;0.47;;;12.10;92.00;12.10;101136.00;;;;4995392;27;113380;-65
2022/06/14 00:34:30;;;;;;;0.30;0.30;;;12.10;92.40;12.00;101139.00;;;;5009134;27;99950;-65
2022/06/14 00:36:57;;;;;;;0.30;0.30;;;12.00;92.50;12.00;101137.00;;;;5019808;27;111020;-65
2022/06/14 00:39:23;;;;;;;0.63;0.57;;;12.00;92.60;11.90;101148.00;;;;5001532;27;83015;-65
2022/06/14 00:41:52;;;;;;;0.30;0.30;;;11.90;93.30;11.90;101151.00;;;;5008074;27;112061;-65
2022/06/14 00:44:22;;;;;;;0.90;0.30;;;11.90;93.50;11.80;101154.00;;;;5012162;27;83082;-65
2022/06/14 00:47:10;;;;;;;0.27;0.20;;;11.80;93.70;11.70;101146.00;;;;5001973;27;82757;-65
2022/06/14 00:49:49;;;;;;;0.97;0.23;;;11.80;93.90;11.60;101145.00;;;;4981416;28;97418;-65
2022/06/14 00:52:25;;;;;;;0.40;0.40;;;11.70;94.00;11.60;101154.00;;;;4981567;28;83531;-65
2022/06/14 00:55:02;;;;;;;0.40;0.40;;;11.60;94.20;11.50;101162.00;;;;4997106;27;101494;-65
2022/06/14 00:57:35;;;;;;;0.37;0.33;;;11.60;94.40;11.50;101154.00;;;;4992968;27;89058;-65
2022/06/14 01:00:10;;;;;;;0.33;0.30;;;11.50;94.60;11.40;101150.00;;;;5001855;27;82707;-65
2022/06/14 01:02:45;;;;;;;0.40;0.40;;;11.50;94.80;11.40;101150.00;;;;5019409;27;83925;-65
2022/06/14 01:05:21;;;;;;;0.30;0.30;;;11.40;95.10;11.30;101149.00;;;;4997149;28;82955;-65
2022/06/14 01:07:53;;;;;;;0.30;0.30;;;11.30;95.20;11.30;101162.00;;;;5008224;27;102114;-65
2022/06/14 01:10:27;;;;;;;1.17;0.80;;;11.30;95.60;11.20;101152.00;;;;4981244;28;95508;-65
2022/06/14 01:13:01;;;;;;;3.40;0.80;;;11.20;95.90;11.10;101155.00;;;;5008865;27;84304;-66
2022/06/14 01:15:33;;;;;;;0.67;0.40;;;11.10;96.20;11.10;101160.00;;;;5005335;27;82125;-65
2022/06/14 01:18:05;;;;;;;0.40;0.40;;;11.10;96.30;11.00;101152.00;;;;4982908;28;82815;-65
2022/06/14 01:20:31;;;;;;;1.07;1.00;;;11.10;96.50;11.00;101156.00;;;;5000983;28;82865;-65
2022/06/14 01:22:58;;;;;;;1.90;0.80;;;11.00;96.60;10.90;101148.00;;;;5016890;27;105343;-65
2022/06/14 01:25:29;;;;;;;0.60;0.57;;;11.00;96.80;10.90;101148.00;;;;5002610;27;84828;-65
2022/06/14 01:27:55;;;;;;;0.50;0.50;;;10.90;97.00;10.80;101152.00;;;;4989707;28;83190;-65
2022/06/14 01:30:30;;;;;;;1.17;0.90;;;10.90;97.10;10.80;101158.00;;;;4981260;28;107380;-65
2022/06/14 01:33:06;;;;;;;0.90;0.70;;;10.80;97.30;10.70;101150.00;;;;5017169;27;82616;-65
2022/06/14 01:35:36;;;;;;;1.17;0.70;;;10.80;97.50;10.70;101155.00;;;;5001233;27;102749;-65
2022/06/14 01:38:11;;;;;;;0.57;0.57;;;10.70;97.90;10.60;101150.00;;;;5017825;27;84383;-65
2022/06/14 01:40:59;;;;;;;0.87;0.87;;;10.70;98.20;10.50;101149.00;;;;5002074;27;82091;-66
2022/06/14 01:44:09;;;;;;;1.13;1.03;;;10.60;98.40;10.40;101146.00;;;;4999128;27;82676;-65
2022/06/14 01:46:47;;;;;;;2.53;1.43;;;10.50;98.60;10.40;101149.00;;;;4983449;27;83189;-66
2022/06/14 01:52:33;;;;;;;0.90;0.80;;;10.40;99.10;10.20;101156.00;;;;4992947;28;82775;-66
2022/06/14 01:55:20;;;;;;;1.27;0.83;;;10.30;99.40;10.20;101164.00;;;;4985765;27;82646;-66
2022/06/14 01:58:51;;;;;;;1.47;1.37;;;10.20;99.60;10.10;101156.00;;;;5019308;27;82568;-65
2022/06/14 02:01:28;;;;;;;2.47;1.60;;;10.20;99.90;10.10;101159.00;;;;4985945;27;82701;-65
2022/06/14 02:04:47;;;;;;;1.03;0.90;;;10.20;99.90;10.00;101153.00;;;;4999195;28;82695;-65
2022/06/14 02:07:32;;;;;;;1.53;1.00;;;10.20;99.90;10.10;101162.00;;;;5002465;27;82981;-65
2022/06/14 02:10:18;;;;;;;1.50;1.33;;;10.10;99.90;10.10;101172.00;;;;4981434;28;82990;-65
2022/06/14 02:13:13;;;;;;;1.90;1.27;;;10.10;99.90;10.10;101164.00;;;;4999786;27;83432;-65
2022/06/14 02:15:46;;;;;;;1.40;0.93;;;10.20;99.90;10.20;101165.00;;;;5017652;27;99084;-65
2022/06/14 02:18:18;;;;;;;1.87;1.00;;;10.20;99.90;10.20;101161.00;;;;4978579;28;107614;-65
2022/06/14 02:21:01;;;;;;;0.90;0.73;;;10.20;99.90;10.20;101168.00;;;;4980022;27;102053;-65
2022/06/14 02:23:33;;;;;;;1.30;1.17;;;10.30;99.90;10.30;101163.00;;;;4980156;28;103191;-65
2022/06/14 02:26:07;;;;;;;0.83;0.83;;;10.30;99.90;10.30;101164.00;;;;5000216;27;96925;-65
2022/06/14 02:28:41;;;;;;;4.17;0.87;;;10.60;99.90;10.30;101164.00;;;;4996053;28;83321;-65
2022/06/14 02:31:40;;;;;;;1.00;0.80;;;10.30;99.90;10.20;101168.00;;;;4980946;27;93775;-65
2022/06/14 02:34:12;;;;;;;0.50;0.50;;;10.30;99.90;10.20;101164.00;;;;4994227;28;82764;-65
2022/06/14 02:37:05;;;;;;;2.50;0.80;;;10.20;99.90;10.10;101186.00;;;;4999093;27;99868;-66
2022/06/14 02:39:47;;;;;;;0.80;0.77;;;10.20;99.90;10.10;101177.00;;;;4998281;28;82820;-65
2022/06/14 02:42:27;;;;;;;0.77;0.77;;;10.10;99.90;10.00;101186.00;;;;4972486;28;83095;-65
2022/06/14 02:45:17;;;;;;;0.80;0.60;;;10.10;99.90;10.00;101191.00;;;;4997486;27;83458;-65
2022/06/14 02:48:11;;;;;;;0.60;0.50;;;10.10;99.90;9.90;101197.00;;;;5006059;27;82519;-65
2022/06/14 02:51:00;;;;;;;0.40;0.40;;;10.00;99.90;9.90;101193.00;;;;5013676;27;106170;-66
2022/06/14 02:54:03;;;;;;;1.17;0.80;;;10.00;99.90;9.90;101196.00;;;;4999619;27;101062;-65
2022/06/14 02:56:41;;;;;;;0.53;0.53;;;9.90;99.90;9.90;101198.00;;;;4984363;27;83262;-65
2022/06/14 02:59:18;;;;;;;0.87;0.40;;;9.90;99.90;9.90;101205.00;;;;5017990;27;82705;-65
2022/06/14 03:01:58;;;;;;;0.33;0.33;;;9.90;99.90;9.90;101204.00;;;;4999160;27;102223;-65
2022/06/14 03:04:34;;;;;;;0.50;0.50;;;9.90;99.90;9.90;101208.00;;;;4990237;28;82691;-65
2022/06/14 03:07:14;;;;;;;0.50;0.50;;;9.90;99.90;9.90;101203.00;;;;4979221;28;82825;-65
2022/06/14 03:09:46;;;;;;;0.60;0.60;;;10.00;99.90;9.90;101207.00;;;;4979727;28;82739;-65
2022/06/14 03:12:55;;;;;;;0.50;0.50;;;9.90;99.90;9.90;101213.00;;;;4979183;28;84982;-65
2022/06/14 03:15:46;;;;;;;0.60;0.60;;;9.90;99.90;9.90;101218.00;;;;4983014;27;106285;-65
2022/06/14 03:18:23;;;;;;;0.83;0.83;;;9.90;99.90;9.90;101224.00;;;;4999638;27;83152;-65
2022/06/14 03:21:16;;;;;;;0.47;0.47;;;9.90;99.90;10.00;101224.00;;;;4998760;27;82542;-66
2022/06/14 03:24:03;;;;;;;0.40;0.40;;;10.00;99.90;10.00;101214.00;;;;4978637;28;83074;-65
2022/06/14 03:27:05;;;;;;;3.00;0.97;;;10.00;99.90;10.10;101221.00;;;;5000156;27;105491;-65
2022/06/14 03:29:50;;;;;;;1.37;0.70;;;10.10;99.90;10.20;101225.00;;;;5017913;27;82562;-65
2022/06/14 03:32:37;;;;;;;0.70;0.50;;;10.20;99.90;10.30;101215.00;;;;5005314;27;101851;-65
2022/06/14 03:35:16;;;;;;;1.07;0.73;;;10.30;99.90;10.40;101220.00;;;;5001810;27;102031;-65
2022/06/14 03:37:42;;;;;;;0.67;0.67;;;10.40;99.90;10.50;101229.00;;;;5015881;27;82739;-65
2022/06/14 03:40:13;;;;;;;1.20;0.60;;;10.40;99.90;10.60;101231.00;;;;5017143;27;94281;-65
2022/06/14 03:42:40;;;;;;;0.30;0.30;;;10.50;99.90;10.70;101236.00;;;;5012706;27;83226;-65
2022/06/14 03:45:08;;;;;;;2.53;0.60;;;10.70;99.90;10.80;101241.00;;;;5003202;27;83148;-65
2022/06/14 03:47:35;;;;;;;0.50;0.50;;;10.70;99.90;10.90;101235.00;;;;5013022;27;94571;-65
2022/06/14 03:50:10;;;;;;;1.57;1.03;;;10.80;99.90;10.90;101229.00;;;;5018592;27;82645;-65
2022/06/14 03:53:04;;;;;;;0.90;0.43;;;10.90;99.90;10.90;101229.00;;;;5014852;27;100729;-65
2022/06/14 03:56:19;;;;;;;1.03;0.83;;;10.90;99.90;10.90;101221.00;;;;5000450;27;82756;-66
2022/06/14 03:59:31;;;;;;;0.97;0.60;;;11.00;99.90;10.90;101229.00;;;;4998667;28;82734;-65
2022/06/14 04:02:53;;;;;;;0.50;0.50;;;11.00;99.90;10.90;101225.00;;;;4998392;27;82709;-65
2022/06/14 04:05:26;;;;;;;0.47;0.40;;;11.00;99.90;11.00;101225.00;;;;5000808;27;82755;-65
2022/06/14 04:08:53;;;;;;;0.60;0.60;;;11.00;99.90;11.00;101235.00;;;;5015029;27;95579;-65
2022/06/14 04:11:50;;;;;;;1.17;0.97;;;11.00;99.90;11.00;101232.00;;;;4976701;28;83217;-65
2022/06/14 04:14:58;;;;;;;0.40;0.40;;;11.00;99.90;11.00;101230.00;;;;5018006;27;82651;-66
2022/06/14 04:17:48;;;;;;;1.00;0.83;;;11.00;99.90;11.10;101233.00;;;;5004231;27;99638;-65
2022/06/14 04:20:28;;;;;;;0.50;0.50;;;11.10;99.90;11.10;101237.00;;;;4998753;28;100765;-65
2022/06/14 04:23:16;;;;;;;0.90;0.57;;;11.10;99.90;11.20;101240.00;;;;5015786;27;82814;-65
2022/06/14 04:25:53;;;;;;;1.70;0.70;;;11.20;99.90;11.30;101238.00;;;;4999468;27;94126;-65
2022/06/14 04:28:45;;;;;;;1.20;1.10;;;11.20;99.90;11.30;101228.00;;;;5007755;27;82101;-65
2022/06/14 04:31:37;;;;;;;1.80;0.97;;;11.30;99.90;11.40;101232.00;;;;5019342;27;83062;-65
2022/06/14 04:34:21;;;;;;;0.80;0.60;;;11.40;99.90;11.50;101232.00;;;;5017841;27;100819;-65
2022/06/14 04:36:58;;;;;;;0.80;0.50;;;11.40;99.90;11.50;101223.00;;;;5014986;27;83852;-65
2022/06/14 04:39:40;;;;;;;0.70;0.70;;;11.50;99.90;11.60;101235.00;;;;4997774;28;102099;-65
2022/06/14 04:42:19;;;;;;;2.07;1.27;;;11.50;99.90;11.70;101229.00;;;;5011650;27;82889;-65
2022/06/14 04:44:55;;;;;;;2.83;0.87;;;11.60;99.90;11.80;101232.00;;;;5017967;27;83037;-64
2022/06/14 04:47:38;;;;;;;0.43;0.43;;;11.70;99.90;11.90;101231.00;;;;5011507;27;92165;-65
2022/06/14 04:50:16;;;;;;;0.53;0.50;;;11.90;99.90;12.10;101230.00;;;;5014757;27;100804;-65
2022/06/14 04:52:55;;;;;;;0.57;0.57;;;12.00;99.90;12.20;101224.00;;;;5003905;27;82658;-65
2022/06/14 04:55:35;;;;;;;0.30;0.30;;;12.10;99.90;12.50;101232.00;;;;4998196;28;82217;-65
2022/06/14 04:58:32;;;;;;;0.53;0.53;;;12.30;99.90;12.60;101236.00;;;;4981574;28;82596;-65
2022/06/14 05:01:07;;;;;;;1.43;0.53;;;12.50;99.90;12.80;101223.00;;;;4993792;27;82739;-65
2022/06/14 05:03:41;;;;;;;1.23;0.77;;;12.90;99.90;13.00;101227.00;;;;5000366;27;104767;-65
2022/06/14 05:06:17;;;;;;;2.03;0.93;;;12.80;99.90;13.10;101235.00;;;;5008465;27;106069;-65
2022/06/14 05:09:00;;;;;;;1.47;0.83;;;13.00;99.90;13.20;101225.00;;;;4996300;28;105572;-65
2022/06/14 05:11:47;;;;;;;1.07;0.80;;;13.10;99.90;13.40;101240.00;;;;5014531;27;82848;-65
2022/06/14 05:14:23;;;;;;;0.80;0.47;;;13.20;99.90;13.50;101240.00;;;;4997516;28;106926;-66
2022/06/14 05:16:57;;;;;;;1.13;0.43;;;13.40;99.90;13.70;101243.00;;;;4998592;27;104737;-64
2022/06/14 05:19:59;;;;;;;1.00;0.60;;;13.50;99.90;13.90;101243.00;;;;4999474;27;82627;-64
2022/06/14 05:22:35;;;;;;;1.93;0.57;;;13.70;99.90;14.10;101247.00;;;;4998554;27;100585;-65
2022/06/14 05:25:05;;;;;;;2.23;1.70;;;13.90;99.90;14.20;101241.00;;;;4999009;27;83115;-64
2022/06/14 05:27:39;;;;;;;1.80;0.50;;;14.00;99.90;14.30;101252.00;;;;5015865;27;104644;-65
2022/06/14 05:30:45;;;;;;;0.40;0.40;;;14.10;99.90;14.40;101257.00;;;;5019046;27;93948;-64
2022/06/14 05:33:14;;;;;;;1.97;0.40;;;14.30;99.40;14.50;101249.00;;;;5000236;28;82570;-65
2022/06/14 05:35:57;;;;;;;0.63;0.63;;;14.30;99.10;14.60;101252.00;;;;5000204;27;83769;-64
2022/06/14 05:38:51;;;;;;;1.67;0.83;;;14.50;98.40;14.70;101257.00;;;;4999595;27;82655;-64
2022/06/14 05:41:43;;;;;;;0.37;0.37;;;14.60;98.00;14.90;101252.00;;;;5000208;27;82809;-65
2022/06/14 05:44:13;;;;;;;5.53;0.73;;;14.80;97.60;15.00;101260.00;;;;5019433;27;82850;-64
2022/06/14 05:47:00;;;;;;;1.60;0.98;;;14.90;96.80;15.10;101254.00;;;;5014016;27;82701;-66
2022/06/14 05:49:33;;;;;;;0.70;0.70;;;15.00;96.20;15.20;101249.00;;;;4997338;28;104312;-65
2022/06/14 05:52:20;;;;;;;1.27;0.82;;;15.10;95.60;15.30;101258.00;;;;4998715;27;83337;-66
2022/06/14 05:55:14;;;;;;;0.70;0.60;;;15.20;95.40;15.40;101259.00;;;;5017098;27;82665;-65
2022/06/14 05:57:56;;;;;;;0.88;0.88;;;15.30;95.00;15.50;101254.00;;;;5002624;27;83864;-64
2022/06/14 06:00:43;;;;;;;1.05;0.90;;;15.40;94.30;15.50;101261.00;;;;5000361;27;105508;-66
2022/06/14 06:03:25;;;;;;;0.57;0.57;;;15.40;93.80;15.50;101270.00;;;;4971491;28;97355;-66
2022/06/14 06:06:13;;;;;;;2.60;0.70;;;15.50;93.40;15.50;101271.00;;;;4998973;27;102736;-66
2022/06/14 06:08:56;;;;;;;0.50;0.50;;;15.50;93.00;15.60;101274.00;;;;4990722;28;82890;-65
2022/06/14 06:11:36;;;;;;;3.63;1.20;;;15.50;92.90;15.70;101277.00;;;;4980614;28;82714;-65
2022/06/14 06:14:17;;;;;;;0.88;0.50;;;15.60;92.70;15.80;101283.00;;;;4988711;27;82418;-65
2022/06/14 06:19:21;;;;;;;0.50;0.43;;;15.90;92.30;16.30;101281.00;;;;4997738;28;82821;-65
2022/06/14 06:22:03;;;;;;;2.22;0.65;;;16.10;91.70;16.40;101277.00;;;;4998746;27;103871;-65
2022/06/14 06:24:56;;;;;;;2.05;0.90;;;16.20;91.10;16.60;101273.00;;;;4998033;27;83668;-66
2022/06/14 06:27:28;;;;;;;1.33;0.60;;;16.40;90.50;16.80;101280.00;;;;5015458;27;102289;-65
2022/06/14 06:30:12;;;;;;;1.00;0.30;;;16.60;89.10;17.00;101274.00;;;;5018297;27;83754;-66
2022/06/14 06:32:39;;;;;;;0.68;0.60;;;16.80;87.80;17.10;101272.00;;;;5016992;27;82881;-65
2022/06/14 06:35:05;;;;;;;0.30;0.30;;;17.00;85.50;17.20;101282.00;;;;5001855;27;110609;-65
2022/06/14 06:37:38;;;;;;;1.35;0.63;;;17.10;82.90;17.30;101276.00;;;;5017682;27;82834;-66
2022/06/14 06:40:16;;;;;;;2.08;0.88;;;17.10;81.40;17.30;101271.00;;;;5016979;27;83961;-65
2022/06/14 06:42:46;;;;;;;0.35;0.35;;;17.20;79.30;17.40;101272.00;;;;5012807;27;101873;-65
2022/06/14 06:45:28;;;;;;;0.40;0.40;;;17.30;77.70;17.50;101278.00;;;;5013846;27;82856;-66
2022/06/14 06:48:15;;;;;;;0.32;0.22;;;17.40;76.10;17.70;101270.00;;;;5011484;27;101438;-65
2022/06/14 06:50:57;;;;;;;0.60;0.30;;;17.50;74.80;17.80;101289.00;;;;5011883;27;104034;-65
2022/06/14 06:53:25;;;;;;;0.77;0.77;;;17.70;74.30;18.10;101293.00;;;;5000650;27;87756;-66
2022/06/14 06:56:20;;;;;;;1.00;0.68;;;17.90;74.00;18.40;101298.00;;;;5002154;27;84251;-66
2022/06/14 06:59:07;;;;;;;0.28;0.28;;;18.10;73.70;18.70;101293.00;;;;4996022;28;89324;-67
2022/06/14 07:01:38;;;;;;;0.20;0.20;;;18.50;70.50;18.80;101293.00;;;;4986491;27;83118;-67
2022/06/14 07:04:18;;;;;;;0.25;0.25;;;18.60;68.50;19.00;101291.00;;;;5018206;27;82894;-66
2022/06/14 07:06:52;;;;;;;2.75;0.85;;;18.80;67.80;19.20;101294.00;;;;5013236;27;82969;-67
2022/06/14 07:09:32;;;;;;;0.13;0.13;;;19.00;65.70;19.40;101298.00;;;;4997166;28;82001;-65
2022/06/14 07:12:06;;;;;;;1.15;0.55;;;19.20;65.60;19.70;101300.00;;;;5013106;27;105461;-65
2022/06/14 07:14:50;;;;;;;0.30;0.30;;;19.40;65.00;19.80;101296.00;;;;4995391;27;99795;-67
2022/06/14 07:17:29;;;;;;;3.85;0.80;;;19.60;62.00;19.70;101302.00;;;;4997086;27;83544;-65
2022/06/14 07:20:09;;;;;;;1.38;0.65;;;19.60;59.50;19.60;101300.00;;;;5016313;27;82655;-65
2022/06/14 07:22:38;;;;;;;0.38;0.32;;;19.50;58.90;19.70;101295.00;;;;5014373;27;82662;-65
2022/06/14 07:25:34;;;;;;;0.13;0.13;;;19.60;59.30;19.80;101298.00;;;;5016263;27;83634;-65
2022/06/14 07:28:05;;;;;;;2.88;0.73;;;19.70;58.80;19.90;101292.00;;;;5014710;27;83201;-66
2022/06/14 07:30:50;;;;;;;6.05;0.40;;;19.70;58.30;20.00;101286.00;;;;5012417;27;82725;-66
2022/06/14 07:33:18;;;;;;;0.22;0.22;;;19.80;58.30;20.10;101281.00;;;;5007551;27;82674;-66
2022/06/14 07:35:53;;;;;;;0.20;0.20;;;19.90;58.20;20.30;101294.00;;;;5013221;27;82758;-66
2022/06/14 07:39:04;;;;;;;0.43;0.40;;;20.10;58.10;20.30;101294.00;;;;5013035;27;82913;-67
2022/06/14 07:41:50;;;;;;;0.75;0.28;;;20.20;56.10;20.50;101292.00;;;;5004245;27;82804;-66
2022/06/14 07:45:09;;;;;;;0.40;0.40;;;20.30;56.70;20.50;101290.00;;;;5018415;27;104753;-66
2022/06/14 07:48:02;;;;;;;0.40;0.40;;;20.50;55.60;20.40;101292.00;;;;5007965;27;83067;-67
2022/06/14 07:50:46;;;;;;;1.60;0.20;;;20.40;55.60;20.40;101293.00;;;;5014231;27;98854;-66
2022/06/14 07:53:34;;;;;;;2.92;0.77;;;20.40;55.40;20.30;101293.00;;;;5008320;27;82868;-66
2022/06/14 07:56:08;;;;;;;0.35;0.35;;;20.30;55.30;20.50;101294.00;;;;5001438;28;84114;-66
2022/06/14 07:59:08;;;;;;;1.23;0.30;;;20.30;55.60;20.60;101294.00;;;;5001494;27;83536;-65
2022/06/14 08:01:41;;;;;;;0.43;0.43;;;20.50;54.10;20.80;101285.00;;;;4998914;28;98150;-65
2022/06/14 08:04:26;;;;;;;1.95;0.63;;;20.60;53.50;21.00;101285.00;;;;4999910;28;81914;-66
2022/06/14 08:07:01;;;;;;;0.50;0.40;;;20.80;54.00;21.40;101285.00;;;;5004737;27;96449;-66
2022/06/14 08:10:00;;;;;;;0.22;0.22;;;21.10;53.40;21.70;101288.00;;;;4997983;27;103805;-65
2022/06/14 08:12:48;;;;;;;0.90;0.50;;;21.40;53.10;22.00;101281.00;;;;5007813;27;83713;-65
2022/06/14 08:15:23;;;;;;;0.70;0.52;;;21.70;52.60;22.00;101274.00;;;;5001174;28;95605;-65
2022/06/14 08:18:03;;;;;;;0.65;0.57;;;21.80;51.10;21.80;101287.00;;;;4999729;27;106105;-65
2022/06/14 08:20:52;;;;;;;0.35;0.35;;;21.80;50.60;21.60;101286.00;;;;5019338;27;99181;-66
2022/06/14 08:23:47;;;;;;;0.20;0.20;;;21.60;50.00;21.30;101284.00;;;;5019570;27;82695;-67
2022/06/14 08:26:56;;;;;;;1.02;0.82;;;21.40;50.00;21.30;101275.00;;;;5034518;27;97621;-66
2022/06/14 08:29:36;;;;;;;1.65;0.55;;;21.20;50.60;21.60;101277.00;;;;5021131;27;83039;-66
2022/06/14 08:32:17;;;;;;;0.52;0.20;;;21.40;51.40;22.00;101285.00;;;;5019000;27;82831;-68
2022/06/14 08:35:09;;;;;;;5.00;0.75;;;21.70;51.10;22.10;101287.00;;;;5019434;27;104008;-66
2022/06/14 08:41:57;;;;;;;1.30;0.63;;;21.90;48.00;21.70;101284.00;;;;5018681;27;83888;-66
2022/06/14 08:44:31;;;;;;;2.85;0.73;;;21.70;47.70;21.80;101270.00;;;;4959594;28;86196;-66
2022/06/14 08:47:03;;;;;;;2.25;0.93;;;21.70;48.40;21.80;101288.00;;;;5012007;27;100321;-67
2022/06/14 08:49:49;;;;;;;0.57;0.57;;;21.80;48.60;21.80;101289.00;;;;5019991;27;82986;-66
2022/06/14 08:53:16;;;;;;;0.35;0.35;;;21.70;48.60;21.70;101288.00;;;;5019152;27;83156;-68
2022/06/14 08:56:13;;;;;;;0.63;0.55;;;21.60;48.80;21.70;101284.00;;;;5021275;27;105789;-67
2022/06/14 08:59:12;;;;;;;0.73;0.47;;;21.60;49.10;22.00;101276.00;;;;5014483;27;82836;-69
2022/06/14 09:02:30;;;;;;;1.25;0.68;;;21.70;49.50;22.50;101282.00;;;;4998784;27;82089;-70
2022/06/14 09:05:35;;;;;;;1.35;0.57;;;22.10;49.30;23.00;101276.00;;;;5019380;27;82480;-68
2022/06/14 09:08:44;;;;;;;0.90;0.60;;;22.60;48.40;23.00;101279.00;;;;5012499;27;104990;-68
2022/06/14 09:11:18;;;;;;;0.50;0.50;;;22.80;47.10;23.10;101276.00;;;;5015987;27;83595;-68
2022/06/14 09:14:06;;;;;;;1.75;0.90;;;22.80;46.80;23.20;101278.00;;;;5001785;27;82995;-70
2022/06/14 09:17:22;;;;;;;0.43;0.40;;;22.90;46.20;23.50;101283.00;;;;4997967;28;83128;-70
2022/06/14 09:20:24;;;;;;;0.90;0.55;;;23.10;46.20;23.50;101282.00;;;;4997111;28;103708;-69
2022/06/14 09:23:04;;;;;;;1.08;0.35;;;23.30;45.60;23.20;101288.00;;;;4999163;28;82685;-69
2022/06/14 09:26:27;;;;;;;1.50;0.50;;;23.10;45.00;23.00;101277.00;;;;4999209;28;93282;-70
2022/06/14 09:29:26;;;;;;;1.08;0.63;;;22.90;45.30;23.10;101272.00;;;;4977575;28;82641;-71
2022/06/14 09:33:09;;;;;;;1.15;0.47;;;22.90;45.90;23.40;101272.00;;;;4983840;28;81976;-68
2022/06/14 09:36:06;;;;;;;0.20;0.20;;;23.10;45.00;23.60;101281.00;;;;4985750;28;82747;-71
2022/06/14 09:38:48;;;;;;;1.48;0.68;;;23.30;44.70;23.40;101255.00;;;;5002061;28;82491;-68
2022/06/14 09:41:45;;;;;;;0.50;0.40;;;23.30;43.50;23.20;101263.00;;;;5001878;27;84234;-69
2022/06/14 09:44:20;;;;;;;0.40;0.40;;;23.10;43.00;23.10;101267.00;;;;5019766;27;83684;-69
2022/06/14 09:47:16;;;;;;;0.43;0.40;;;22.90;43.00;22.90;101269.00;;;;5019323;27;90947;-70
2022/06/14 09:50:14;;;;;;;0.80;0.38;;;22.80;42.70;22.80;101257.00;;;;4996838;28;82945;-70
2022/06/14 09:57:04;;;;;;;0.82;0.63;;;22.60;43.70;22.70;101252.00;;;;4974969;27;82811;-71
2022/06/14 09:59:52;;;;;;;0.20;0.20;;;22.60;43.50;22.70;101261.00;;;;4990153;27;82626;-68
2022/06/14 10:02:48;;;;;;;0.85;0.73;;;22.50;43.30;22.60;101259.00;;;;5014426;27;92768;-69
2022/06/14 10:05:44;;;;;;;0.30;0.30;;;22.40;43.40;22.50;101263.00;;;;5012975;27;98721;-69
2022/06/14 10:08:45;;;;;;;0.65;0.40;;;22.30;43.30;22.60;101257.00;;;;4999442;27;84117;-70
2022/06/14 10:12:03;;;;;;;0.30;0.30;;;22.30;43.70;23.00;101262.00;;;;5018455;27;83566;-71
2022/06/14 10:14:31;;;;;;;0.10;0.10;;;22.50;44.00;23.40;101258.00;;;;5019143;27;82559;-71
2022/06/14 10:17:34;;;;;;;0.20;0.20;;;22.90;44.00;23.60;101269.00;;;;5008307;27;82943;-70
2022/06/14 10:20:17;;;;;;;1.00;0.63;;;23.10;43.30;23.60;101256.00;;;;5017915;27;82564;-69
2022/06/14 10:23:08;;;;;;;3.40;0.70;;;23.20;42.30;23.50;101266.00;;;;4998582;27;82834;-69
2022/06/14 10:28:37;;;;;;;0.30;0.30;;;23.10;42.40;23.50;101267.00;;;;4992091;28;83000;-69
2022/06/14 10:31:06;;;;;;;1.35;0.50;;;23.10;42.50;23.70;101261.00;;;;5000118;27;112894;-70
2022/06/14 10:34:01;;;;;;;0.20;0.20;;;23.30;42.70;23.90;101249.00;;;;4996172;28;82697;-68
2022/06/14 10:36:44;;;;;;;1.17;0.50;;;23.40;41.80;23.90;101256.00;;;;4987741;28;82900;-69
2022/06/14 10:40:08;;;;;;;0.77;0.52;;;23.50;41.60;24.10;101257.00;;;;5002771;27;100875;-69
2022/06/14 10:42:55;;;;;;;1.30;0.32;;;23.60;41.90;24.40;101251.00;;;;4998663;27;82949;-69
2022/06/14 10:45:54;;;;;;;6.40;0.50;;;23.90;40.90;24.60;101251.00;;;;4963228;28;82903;-69
2022/06/14 10:49:12;;;;;;;1.20;0.52;;;24.10;40.10;24.60;101253.00;;;;5000674;27;82608;-70
2022/06/14 10:51:59;;;;;;;0.20;0.20;;;24.20;40.30;24.90;101254.00;;;;5009715;27;82653;-69
2022/06/14 10:54:58;;;;;;;0.40;0.40;;;24.30;40.80;25.40;101247.00;;;;5008588;27;83734;-68
2022/06/14 10:57:52;;;;;;;0.28;0.28;;;24.80;40.20;25.50;101248.00;;;;5017181;27;95111;-68
2022/06/14 11:00:45;;;;;;;1.42;0.40;;;25.00;39.10;25.50;101260.00;;;;4992364;28;102552;-68
2022/06/14 11:03:38;;;;;;;0.68;0.40;;;25.00;38.80;25.60;101254.00;;;;5004601;27;100717;-70
2022/06/14 11:06:41;;;;;;;1.85;0.50;;;25.10;38.50;25.50;101253.00;;;;5017954;27;82513;-71
2022/06/14 11:09:31;;;;;;;0.50;0.43;;;25.10;37.70;25.60;101242.00;;;;4990495;27;83641;-70
2022/06/14 11:12:28;;;;;;;1.88;0.47;;;25.10;37.70;25.60;101259.00;;;;5018571;27;82692;-69
2022/06/14 11:15:41;;;;;;;0.38;0.30;;;25.20;37.80;25.60;101242.00;;;;4999140;27;98157;-69
2022/06/14 11:18:47;;;;;;;0.32;0.30;;;25.20;37.60;25.40;101250.00;;;;4998934;27;82948;-68
2022/06/14 11:21:59;;;;;;;1.77;0.55;;;25.00;37.80;25.50;101241.00;;;;5015901;27;82521;-68
2022/06/14 11:24:56;;;;;;;0.20;0.20;;;25.00;38.10;25.70;101241.00;;;;4964210;27;103836;-68
2022/06/14 11:28:02;;;;;;;1.75;0.22;;;25.20;38.30;25.70;101247.00;;;;4998742;27;83102;-68
2022/06/14 11:30:53;;;;;;;1.02;0.20;;;25.30;38.10;25.60;101241.00;;;;4998547;27;81879;-69
2022/06/14 11:34:08;;;;;;;4.38;0.20;;;25.20;37.60;25.70;101248.00;;;;5007360;27;102874;-70
2022/06/14 11:37:09;;;;;;;4.18;0.32;;;25.20;37.90;26.20;101251.00;;;;5008505;27;82672;-68
2022/06/14 11:40:12;;;;;;;1.02;0.65;;;25.60;38.00;26.60;101246.00;;;;4972178;28;97749;-69
2022/06/14 11:43:04;;;;;;;0.57;0.35;;;25.90;37.20;26.80;101245.00;;;;5011495;27;83080;-69
2022/06/14 11:45:49;;;;;;;0.45;0.30;;;26.10;37.20;27.00;101233.00;;;;4999172;27;84244;-70
2022/06/14 11:48:35;;;;;;;1.08;0.63;;;26.40;36.60;27.20;101241.00;;;;4999168;27;82791;-70
2022/06/14 11:51:38;;;;;;;0.20;0.20;;;26.60;36.70;27.20;101242.00;;;;5017095;27;82908;-68
2022/06/14 11:54:37;;;;;;;0.10;0.10;;;26.70;35.60;27.10;101241.00;;;;4997691;27;85379;-70
2022/06/14 11:57:29;;;;;;;0.43;0.20;;;26.60;35.40;27.10;101221.00;;;;4997904;27;98971;-68
2022/06/14 12:00:31;;;;;;;1.10;0.52;;;26.60;34.60;27.20;101228.00;;;;4963579;28;81951;-68
2022/06/14 12:03:54;;;;;;;0.30;0.30;;;26.70;34.70;27.50;101220.00;;;;5003443;27;82937;-69
2022/06/14 12:06:41;;;;;;;0.68;0.50;;;27.00;34.50;27.30;101225.00;;;;4993976;28;104474;-70
2022/06/14 12:09:23;;;;;;;0.85;0.40;;;26.90;33.70;27.30;101215.00;;;;5008453;27;83869;-69
2022/06/14 12:12:15;;;;;;;0.95;0.20;;;26.80;34.30;27.50;101227.00;;;;4971511;28;82651;-70
2022/06/14 12:15:09;;;;;;;1.13;0.47;;;26.90;33.70;27.70;101233.00;;;;5015476;27;82617;-69
2022/06/14 12:17:44;;;;;;;0.63;0.63;;;27.20;33.80;27.80;101231.00;;;;4984235;28;82747;-71
2022/06/14 12:20:21;;;;;;;0.35;0.35;;;27.30;34.00;28.00;101217.00;;;;4978124;28;103591;-69
2022/06/14 12:23:02;;;;;;;0.43;0.43;;;27.40;34.00;28.10;101209.00;;;;5006897;27;83038;-71